sensor_id;sensor_type;location;lat;lon;timestamp;P1;durP1;ratioP1;P2;durP2;ratioP2
31848;SDS011;18414;59.352;18.152;2023-02-18T00:02:05;6.37;;;3.70;;
31848;SDS011;18414;59.352;18.152;2023-02-18T00:04:31;4.60;;;3.60;;
31848;SDS011;18414;59.352;18.152;2023-02-18T00:06:56;4.03;;;3.10;;
31848;SDS011;18414;59.352;18.152;2023-02-18T00:09:23;3.30;;;2.60;;
31848;SDS011;18414;59.352;18.152;2023-02-18T00:11:48;3.70;;;2.60;;
31848;SDS011;18414;59.352;18.152;2023-02-18T00:14:14;3.00;;;2.47;;
31848;SDS011;18414;59.352;18.152;2023-02-18T00:16:41;2.37;;;2.00;;
31848;SDS011;18414;59.352;18.152;2023-02-18T00:19:07;2.10;;;1.90;;
31848;SDS011;18414;59.352;18.152;2023-02-18T00:21:36;3.27;;;2.20;;
31848;SDS011;18414;59.352;18.152;2023-02-18T00:24:02;2.37;;;2.10;;
31848;SDS011;18414;59.352;18.152;2023-02-18T00:26:28;2.63;;;2.03;;
31848;SDS011;18414;59.352;18.152;2023-02-18T00:28:54;2.57;;;2.03;;
31848;SDS011;18414;59.352;18.152;2023-02-18T00:31:21;2.37;;;2.17;;
31848;SDS011;18414;59.352;18.152;2023-02-18T00:33:49;2.10;;;1.90;;
31848;SDS011;18414;59.352;18.152;2023-02-18T00:36:16;2.40;;;1.90;;
31848;SDS011;18414;59.352;18.152;2023-02-18T00:38:43;2.00;;;1.80;;
31848;SDS011;18414;59.352;18.152;2023-02-18T00:41:12;2.30;;;1.90;;
31848;SDS011;18414;59.352;18.152;2023-02-18T00:43:37;2.50;;;2.00;;
31848;SDS011;18414;59.352;18.152;2023-02-18T00:46:03;2.03;;;1.83;;
31848;SDS011;18414;59.352;18.152;2023-02-18T00:48:28;2.70;;;1.83;;
31848;SDS011;18414;59.352;18.152;2023-02-18T00:50:54;2.10;;;1.80;;
31848;SDS011;18414;59.352;18.152;2023-02-18T00:53:19;2.27;;;1.93;;
31848;SDS011;18414;59.352;18.152;2023-02-18T00:55:46;1.53;;;1.43;;
31848;SDS011;18414;59.352;18.152;2023-02-18T00:58:12;2.03;;;1.30;;
31848;SDS011;18414;59.352;18.152;2023-02-18T01:00:38;1.73;;;1.43;;
31848;SDS011;18414;59.352;18.152;2023-02-18T01:03:04;2.17;;;1.67;;
31848;SDS011;18414;59.352;18.152;2023-02-18T01:05:31;1.70;;;1.60;;
31848;SDS011;18414;59.352;18.152;2023-02-18T01:07:57;1.80;;;1.60;;
31848;SDS011;18414;59.352;18.152;2023-02-18T01:10:22;1.93;;;1.57;;
31848;SDS011;18414;59.352;18.152;2023-02-18T01:12:48;2.57;;;1.70;;
31848;SDS011;18414;59.352;18.152;2023-02-18T01:15:14;1.70;;;1.53;;
31848;SDS011;18414;59.352;18.152;2023-02-18T01:17:40;1.50;;;1.40;;
31848;SDS011;18414;59.352;18.152;2023-02-18T01:20:05;1.53;;;1.30;;
31848;SDS011;18414;59.352;18.152;2023-02-18T01:22:31;1.60;;;1.47;;
31848;SDS011;18414;59.352;18.152;2023-02-18T01:24:57;1.87;;;1.60;;
31848;SDS011;18414;59.352;18.152;2023-02-18T01:27:22;2.30;;;1.97;;
31848;SDS011;18414;59.352;18.152;2023-02-18T01:29:47;1.90;;;1.73;;
31848;SDS011;18414;59.352;18.152;2023-02-18T01:32:13;2.40;;;1.80;;
31848;SDS011;18414;59.352;18.152;2023-02-18T01:34:38;2.93;;;2.07;;
31848;SDS011;18414;59.352;18.152;2023-02-18T01:37:03;2.30;;;1.63;;
31848;SDS011;18414;59.352;18.152;2023-02-18T01:39:29;2.63;;;1.97;;
31848;SDS011;18414;59.352;18.152;2023-02-18T01:41:54;1.40;;;1.30;;
31848;SDS011;18414;59.352;18.152;2023-02-18T01:44:20;1.43;;;1.30;;
31848;SDS011;18414;59.352;18.152;2023-02-18T01:46:48;1.00;;;1.00;;
31848;SDS011;18414;59.352;18.152;2023-02-18T01:49:35;1.07;;;0.80;;
31848;SDS011;18414;59.352;18.152;2023-02-18T01:52:12;0.70;;;0.70;;
31848;SDS011;18414;59.352;18.152;2023-02-18T01:54:44;0.60;;;0.60;;
31848;SDS011;18414;59.352;18.152;2023-02-18T01:57:13;0.47;;;0.47;;
31848;SDS011;18414;59.352;18.152;2023-02-18T01:59:51;0.60;;;0.60;;
31848;SDS011;18414;59.352;18.152;2023-02-18T02:02:19;0.50;;;0.50;;
31848;SDS011;18414;59.352;18.152;2023-02-18T02:04:47;0.53;;;0.53;;
31848;SDS011;18414;59.352;18.152;2023-02-18T02:07:12;0.60;;;0.60;;
31848;SDS011;18414;59.352;18.152;2023-02-18T02:09:39;0.60;;;0.60;;
31848;SDS011;18414;59.352;18.152;2023-02-18T02:12:28;0.70;;;0.50;;
31848;SDS011;18414;59.352;18.152;2023-02-18T02:36:38;0.60;;;0.60;;
31848;SDS011;18414;59.352;18.152;2023-02-18T02:39:07;0.50;;;0.50;;
31848;SDS011;18414;59.352;18.152;2023-02-18T02:41:42;0.60;;;0.60;;
31848;SDS011;18414;59.352;18.152;2023-02-18T02:44:20;0.57;;;0.57;;
31848;SDS011;18414;59.352;18.152;2023-02-18T02:46:53;0.50;;;0.50;;
31848;SDS011;18414;59.352;18.152;2023-02-18T02:51:59;0.40;;;0.40;;
31848;SDS011;18414;59.352;18.152;2023-02-18T02:54:30;0.50;;;0.50;;
31848;SDS011;18414;59.352;18.152;2023-02-18T02:59:31;0.40;;;0.40;;
31848;SDS011;18414;59.352;18.152;2023-02-18T03:02:17;0.50;;;0.50;;
31848;SDS011;18414;59.352;18.152;2023-02-18T03:12:52;0.60;;;0.60;;
31848;SDS011;18414;59.352;18.152;2023-02-18T03:18:33;0.70;;;0.70;;
31848;SDS011;18414;59.352;18.152;2023-02-18T03:21:22;0.50;;;0.50;;
31848;SDS011;18414;59.352;18.152;2023-02-18T03:23:52;0.50;;;0.50;;
31848;SDS011;18414;59.352;18.152;2023-02-18T03:26:20;0.57;;;0.57;;
31848;SDS011;18414;59.352;18.152;2023-02-18T03:28:46;0.60;;;0.60;;
31848;SDS011;18414;59.352;18.152;2023-02-18T03:31:14;0.43;;;0.43;;
31848;SDS011;18414;59.352;18.152;2023-02-18T03:33:51;0.50;;;0.50;;
31848;SDS011;18414;59.352;18.152;2023-02-18T03:36:19;0.50;;;0.50;;
31848;SDS011;18414;59.352;18.152;2023-02-18T03:38:49;0.50;;;0.50;;
31848;SDS011;18414;59.352;18.152;2023-02-18T03:41:25;0.50;;;0.50;;
31848;SDS011;18414;59.352;18.152;2023-02-18T03:43:51;0.37;;;0.37;;
31848;SDS011;18414;59.352;18.152;2023-02-18T03:46:24;0.50;;;0.50;;
31848;SDS011;18414;59.352;18.152;2023-02-18T03:48:50;0.43;;;0.43;;
31848;SDS011;18414;59.352;18.152;2023-02-18T03:51:17;0.47;;;0.47;;
31848;SDS011;18414;59.352;18.152;2023-02-18T03:53:43;0.40;;;0.40;;
31848;SDS011;18414;59.352;18.152;2023-02-18T03:56:09;0.50;;;0.50;;
31848;SDS011;18414;59.352;18.152;2023-02-18T03:58:34;0.40;;;0.40;;
31848;SDS011;18414;59.352;18.152;2023-02-18T04:01:00;0.47;;;0.47;;
31848;SDS011;18414;59.352;18.152;2023-02-18T04:03:25;0.43;;;0.43;;
31848;SDS011;18414;59.352;18.152;2023-02-18T04:05:51;1.30;;;0.60;;
31848;SDS011;18414;59.352;18.152;2023-02-18T04:08:16;0.40;;;0.40;;
31848;SDS011;18414;59.352;18.152;2023-02-18T04:10:42;0.40;;;0.40;;
31848;SDS011;18414;59.352;18.152;2023-02-18T04:13:07;0.40;;;0.40;;
31848;SDS011;18414;59.352;18.152;2023-02-18T04:15:33;0.47;;;0.47;;
31848;SDS011;18414;59.352;18.152;2023-02-18T04:17:59;0.40;;;0.40;;
31848;SDS011;18414;59.352;18.152;2023-02-18T04:20:24;0.40;;;0.40;;
31848;SDS011;18414;59.352;18.152;2023-02-18T04:22:50;0.50;;;0.50;;
31848;SDS011;18414;59.352;18.152;2023-02-18T04:25:15;0.40;;;0.40;;
31848;SDS011;18414;59.352;18.152;2023-02-18T04:27:40;0.40;;;0.40;;
31848;SDS011;18414;59.352;18.152;2023-02-18T04:30:06;0.40;;;0.40;;
31848;SDS011;18414;59.352;18.152;2023-02-18T04:32:32;0.40;;;0.40;;
31848;SDS011;18414;59.352;18.152;2023-02-18T04:34:57;0.30;;;0.30;;
31848;SDS011;18414;59.352;18.152;2023-02-18T04:37:23;0.40;;;0.40;;
31848;SDS011;18414;59.352;18.152;2023-02-18T04:39:48;0.47;;;0.47;;
31848;SDS011;18414;59.352;18.152;2023-02-18T04:42:13;0.40;;;0.40;;
31848;SDS011;18414;59.352;18.152;2023-02-18T04:44:39;0.40;;;0.40;;
31848;SDS011;18414;59.352;18.152;2023-02-18T04:47:04;0.40;;;0.40;;
31848;SDS011;18414;59.352;18.152;2023-02-18T04:49:30;0.40;;;0.40;;
31848;SDS011;18414;59.352;18.152;2023-02-18T04:51:55;0.50;;;0.50;;
31848;SDS011;18414;59.352;18.152;2023-02-18T04:54:21;0.40;;;0.40;;
31848;SDS011;18414;59.352;18.152;2023-02-18T04:56:46;0.40;;;0.40;;
31848;SDS011;18414;59.352;18.152;2023-02-18T04:59:11;0.40;;;0.40;;
31848;SDS011;18414;59.352;18.152;2023-02-18T05:01:37;0.50;;;0.50;;
31848;SDS011;18414;59.352;18.152;2023-02-18T05:04:02;0.33;;;0.33;;
31848;SDS011;18414;59.352;18.152;2023-02-18T05:06:27;0.43;;;0.43;;
31848;SDS011;18414;59.352;18.152;2023-02-18T05:08:53;0.50;;;0.50;;
31848;SDS011;18414;59.352;18.152;2023-02-18T05:11:18;0.40;;;0.40;;
31848;SDS011;18414;59.352;18.152;2023-02-18T05:13:43;1.40;;;0.40;;
31848;SDS011;18414;59.352;18.152;2023-02-18T05:16:09;0.37;;;0.37;;
31848;SDS011;18414;59.352;18.152;2023-02-18T05:18:34;0.40;;;0.40;;
31848;SDS011;18414;59.352;18.152;2023-02-18T05:20:59;0.40;;;0.40;;
31848;SDS011;18414;59.352;18.152;2023-02-18T05:23:25;0.40;;;0.40;;
31848;SDS011;18414;59.352;18.152;2023-02-18T05:25:50;0.50;;;0.50;;
31848;SDS011;18414;59.352;18.152;2023-02-18T05:28:16;0.40;;;0.40;;
31848;SDS011;18414;59.352;18.152;2023-02-18T05:30:41;0.40;;;0.40;;
31848;SDS011;18414;59.352;18.152;2023-02-18T05:33:07;0.40;;;0.40;;
31848;SDS011;18414;59.352;18.152;2023-02-18T05:35:32;0.40;;;0.40;;
31848;SDS011;18414;59.352;18.152;2023-02-18T05:37:57;0.40;;;0.40;;
31848;SDS011;18414;59.352;18.152;2023-02-18T05:40:23;0.40;;;0.40;;
31848;SDS011;18414;59.352;18.152;2023-02-18T05:42:48;0.40;;;0.40;;
31848;SDS011;18414;59.352;18.152;2023-02-18T05:45:13;0.40;;;0.40;;
31848;SDS011;18414;59.352;18.152;2023-02-18T05:47:38;0.43;;;0.43;;
31848;SDS011;18414;59.352;18.152;2023-02-18T05:50:04;0.50;;;0.50;;
31848;SDS011;18414;59.352;18.152;2023-02-18T05:52:30;0.50;;;0.50;;
31848;SDS011;18414;59.352;18.152;2023-02-18T05:54:55;0.43;;;0.43;;
31848;SDS011;18414;59.352;18.152;2023-02-18T05:57:21;0.40;;;0.40;;
31848;SDS011;18414;59.352;18.152;2023-02-18T05:59:46;0.40;;;0.40;;
31848;SDS011;18414;59.352;18.152;2023-02-18T06:02:11;0.40;;;0.40;;
31848;SDS011;18414;59.352;18.152;2023-02-18T06:04:37;0.43;;;0.43;;
31848;SDS011;18414;59.352;18.152;2023-02-18T06:07:03;0.40;;;0.40;;
31848;SDS011;18414;59.352;18.152;2023-02-18T06:09:29;0.50;;;0.50;;
31848;SDS011;18414;59.352;18.152;2023-02-18T06:11:54;0.40;;;0.40;;
31848;SDS011;18414;59.352;18.152;2023-02-18T06:14:19;0.40;;;0.40;;
31848;SDS011;18414;59.352;18.152;2023-02-18T06:16:45;0.50;;;0.50;;
31848;SDS011;18414;59.352;18.152;2023-02-18T06:19:10;0.50;;;0.50;;
31848;SDS011;18414;59.352;18.152;2023-02-18T06:21:35;0.50;;;0.50;;
31848;SDS011;18414;59.352;18.152;2023-02-18T06:24:01;0.50;;;0.50;;
31848;SDS011;18414;59.352;18.152;2023-02-18T06:26:26;0.50;;;0.50;;
31848;SDS011;18414;59.352;18.152;2023-02-18T06:28:52;0.40;;;0.40;;
31848;SDS011;18414;59.352;18.152;2023-02-18T06:31:17;0.40;;;0.40;;
31848;SDS011;18414;59.352;18.152;2023-02-18T06:33:42;0.40;;;0.37;;
31848;SDS011;18414;59.352;18.152;2023-02-18T06:36:08;0.40;;;0.40;;
31848;SDS011;18414;59.352;18.152;2023-02-18T06:38:35;0.40;;;0.40;;
31848;SDS011;18414;59.352;18.152;2023-02-18T06:41:01;0.40;;;0.40;;
31848;SDS011;18414;59.352;18.152;2023-02-18T06:43:27;0.50;;;0.50;;
31848;SDS011;18414;59.352;18.152;2023-02-18T06:45:52;0.40;;;0.40;;
31848;SDS011;18414;59.352;18.152;2023-02-18T06:48:17;0.57;;;0.50;;
31848;SDS011;18414;59.352;18.152;2023-02-18T06:50:43;0.30;;;0.30;;
31848;SDS011;18414;59.352;18.152;2023-02-18T06:53:09;0.40;;;0.40;;
31848;SDS011;18414;59.352;18.152;2023-02-18T06:55:35;0.50;;;0.50;;
31848;SDS011;18414;59.352;18.152;2023-02-18T06:58:00;0.40;;;0.40;;
31848;SDS011;18414;59.352;18.152;2023-02-18T07:00:25;0.40;;;0.40;;
31848;SDS011;18414;59.352;18.152;2023-02-18T07:02:51;0.40;;;0.40;;
31848;SDS011;18414;59.352;18.152;2023-02-18T07:05:16;0.40;;;0.40;;
31848;SDS011;18414;59.352;18.152;2023-02-18T07:07:42;0.40;;;0.40;;
31848;SDS011;18414;59.352;18.152;2023-02-18T07:10:07;0.40;;;0.40;;
31848;SDS011;18414;59.352;18.152;2023-02-18T07:12:33;0.40;;;0.40;;
31848;SDS011;18414;59.352;18.152;2023-02-18T07:14:59;0.33;;;0.33;;
31848;SDS011;18414;59.352;18.152;2023-02-18T07:17:24;0.30;;;0.30;;
31848;SDS011;18414;59.352;18.152;2023-02-18T07:19:49;1.13;;;0.40;;
31848;SDS011;18414;59.352;18.152;2023-02-18T07:22:15;0.40;;;0.40;;
31848;SDS011;18414;59.352;18.152;2023-02-18T07:24:40;0.40;;;0.40;;
31848;SDS011;18414;59.352;18.152;2023-02-18T07:27:06;0.40;;;0.40;;
31848;SDS011;18414;59.352;18.152;2023-02-18T07:29:31;0.40;;;0.40;;
31848;SDS011;18414;59.352;18.152;2023-02-18T07:31:56;0.50;;;0.50;;
31848;SDS011;18414;59.352;18.152;2023-02-18T07:34:22;0.50;;;0.50;;
31848;SDS011;18414;59.352;18.152;2023-02-18T07:36:47;0.60;;;0.60;;
31848;SDS011;18414;59.352;18.152;2023-02-18T07:39:12;0.50;;;0.50;;
31848;SDS011;18414;59.352;18.152;2023-02-18T07:41:38;0.40;;;0.40;;
31848;SDS011;18414;59.352;18.152;2023-02-18T07:44:03;0.50;;;0.50;;
31848;SDS011;18414;59.352;18.152;2023-02-18T07:46:29;0.47;;;0.47;;
31848;SDS011;18414;59.352;18.152;2023-02-18T07:48:55;0.50;;;0.50;;
31848;SDS011;18414;59.352;18.152;2023-02-18T07:51:22;0.50;;;0.50;;
31848;SDS011;18414;59.352;18.152;2023-02-18T07:53:48;0.40;;;0.40;;
31848;SDS011;18414;59.352;18.152;2023-02-18T07:56:13;0.40;;;0.40;;
31848;SDS011;18414;59.352;18.152;2023-02-18T07:58:39;0.60;;;0.47;;
31848;SDS011;18414;59.352;18.152;2023-02-18T08:01:10;0.40;;;0.40;;
31848;SDS011;18414;59.352;18.152;2023-02-18T08:03:36;0.50;;;0.50;;
31848;SDS011;18414;59.352;18.152;2023-02-18T08:06:02;0.50;;;0.50;;
31848;SDS011;18414;59.352;18.152;2023-02-18T08:08:29;0.50;;;0.50;;
31848;SDS011;18414;59.352;18.152;2023-02-18T08:10:55;0.50;;;0.50;;
31848;SDS011;18414;59.352;18.152;2023-02-18T08:13:22;0.40;;;0.40;;
31848;SDS011;18414;59.352;18.152;2023-02-18T08:15:48;0.47;;;0.47;;
31848;SDS011;18414;59.352;18.152;2023-02-18T08:18:14;0.50;;;0.50;;
31848;SDS011;18414;59.352;18.152;2023-02-18T08:20:41;0.47;;;0.47;;
31848;SDS011;18414;59.352;18.152;2023-02-18T08:23:06;0.40;;;0.40;;
31848;SDS011;18414;59.352;18.152;2023-02-18T08:25:32;0.50;;;0.50;;
31848;SDS011;18414;59.352;18.152;2023-02-18T08:27:57;0.70;;;0.70;;
31848;SDS011;18414;59.352;18.152;2023-02-18T08:30:23;0.50;;;0.50;;
31848;SDS011;18414;59.352;18.152;2023-02-18T08:32:48;1.23;;;0.70;;
31848;SDS011;18414;59.352;18.152;2023-02-18T08:35:14;0.60;;;0.60;;
31848;SDS011;18414;59.352;18.152;2023-02-18T08:37:39;0.60;;;0.60;;
31848;SDS011;18414;59.352;18.152;2023-02-18T08:40:05;0.50;;;0.50;;
31848;SDS011;18414;59.352;18.152;2023-02-18T08:42:31;0.60;;;0.60;;
31848;SDS011;18414;59.352;18.152;2023-02-18T08:44:56;0.50;;;0.50;;
31848;SDS011;18414;59.352;18.152;2023-02-18T08:47:21;0.50;;;0.50;;
31848;SDS011;18414;59.352;18.152;2023-02-18T08:49:47;0.50;;;0.50;;
31848;SDS011;18414;59.352;18.152;2023-02-18T08:52:12;0.53;;;0.53;;
31848;SDS011;18414;59.352;18.152;2023-02-18T08:54:38;0.60;;;0.60;;
31848;SDS011;18414;59.352;18.152;2023-02-18T08:57:03;0.70;;;0.67;;
31848;SDS011;18414;59.352;18.152;2023-02-18T08:59:28;0.73;;;0.50;;
31848;SDS011;18414;59.352;18.152;2023-02-18T09:01:54;0.70;;;0.60;;
31848;SDS011;18414;59.352;18.152;2023-02-18T09:04:19;0.50;;;0.50;;
31848;SDS011;18414;59.352;18.152;2023-02-18T09:06:45;0.70;;;0.70;;
31848;SDS011;18414;59.352;18.152;2023-02-18T09:09:11;0.50;;;0.50;;
31848;SDS011;18414;59.352;18.152;2023-02-18T09:11:37;0.50;;;0.50;;
31848;SDS011;18414;59.352;18.152;2023-02-18T09:14:02;0.73;;;0.50;;
31848;SDS011;18414;59.352;18.152;2023-02-18T09:16:28;0.60;;;0.60;;
31848;SDS011;18414;59.352;18.152;2023-02-18T09:18:54;0.50;;;0.50;;
31848;SDS011;18414;59.352;18.152;2023-02-18T09:21:19;0.50;;;0.50;;
31848;SDS011;18414;59.352;18.152;2023-02-18T09:23:46;0.80;;;0.50;;
31848;SDS011;18414;59.352;18.152;2023-02-18T09:26:13;0.50;;;0.50;;
31848;SDS011;18414;59.352;18.152;2023-02-18T09:28:39;0.60;;;0.60;;
31848;SDS011;18414;59.352;18.152;2023-02-18T09:31:09;0.60;;;0.60;;
31848;SDS011;18414;59.352;18.152;2023-02-18T09:33:37;0.60;;;0.60;;
31848;SDS011;18414;59.352;18.152;2023-02-18T09:36:03;0.77;;;0.70;;
31848;SDS011;18414;59.352;18.152;2023-02-18T09:38:29;0.60;;;0.60;;
31848;SDS011;18414;59.352;18.152;2023-02-18T09:40:54;0.53;;;0.50;;
31848;SDS011;18414;59.352;18.152;2023-02-18T09:43:22;0.50;;;0.50;;
31848;SDS011;18414;59.352;18.152;2023-02-18T09:45:52;0.57;;;0.57;;
31848;SDS011;18414;59.352;18.152;2023-02-18T09:48:17;1.20;;;0.70;;
31848;SDS011;18414;59.352;18.152;2023-02-18T09:50:44;0.57;;;0.57;;
31848;SDS011;18414;59.352;18.152;2023-02-18T09:53:13;0.50;;;0.50;;
31848;SDS011;18414;59.352;18.152;2023-02-18T09:55:39;1.00;;;0.70;;
31848;SDS011;18414;59.352;18.152;2023-02-18T09:58:12;2.17;;;0.70;;
31848;SDS011;18414;59.352;18.152;2023-02-18T10:00:47;0.50;;;0.50;;
31848;SDS011;18414;59.352;18.152;2023-02-18T10:03:21;0.60;;;0.60;;
31848;SDS011;18414;59.352;18.152;2023-02-18T10:05:54;1.37;;;0.57;;
31848;SDS011;18414;59.352;18.152;2023-02-18T10:08:29;0.70;;;0.60;;
31848;SDS011;18414;59.352;18.152;2023-02-18T10:10:58;0.63;;;0.63;;
31848;SDS011;18414;59.352;18.152;2023-02-18T10:13:24;0.60;;;0.60;;
31848;SDS011;18414;59.352;18.152;2023-02-18T10:15:52;0.60;;;0.60;;
31848;SDS011;18414;59.352;18.152;2023-02-18T10:18:40;0.47;;;0.47;;
31848;SDS011;18414;59.352;18.152;2023-02-18T10:21:08;0.60;;;0.60;;
31848;SDS011;18414;59.352;18.152;2023-02-18T10:23:37;0.70;;;0.60;;
31848;SDS011;18414;59.352;18.152;2023-02-18T10:26:05;0.60;;;0.60;;
31848;SDS011;18414;59.352;18.152;2023-02-18T10:28:34;0.73;;;0.50;;
31848;SDS011;18414;59.352;18.152;2023-02-18T10:31:07;2.67;;;0.77;;
31848;SDS011;18414;59.352;18.152;2023-02-18T10:33:35;0.90;;;0.60;;
31848;SDS011;18414;59.352;18.152;2023-02-18T10:36:40;0.60;;;0.60;;
31848;SDS011;18414;59.352;18.152;2023-02-18T10:49:58;1.57;;;0.70;;
31848;SDS011;18414;59.352;18.152;2023-02-18T10:52:35;1.03;;;0.63;;
31848;SDS011;18414;59.352;18.152;2023-02-18T10:55:05;2.13;;;0.70;;
31848;SDS011;18414;59.352;18.152;2023-02-18T10:57:33;1.70;;;0.80;;
31848;SDS011;18414;59.352;18.152;2023-02-18T11:00:00;1.00;;;0.70;;
31848;SDS011;18414;59.352;18.152;2023-02-18T11:02:27;0.90;;;0.60;;
31848;SDS011;18414;59.352;18.152;2023-02-18T11:04:56;2.57;;;0.90;;
31848;SDS011;18414;59.352;18.152;2023-02-18T11:07:24;0.80;;;0.60;;
31848;SDS011;18414;59.352;18.152;2023-02-18T11:09:51;2.60;;;0.80;;
31848;SDS011;18414;59.352;18.152;2023-02-18T11:14:46;1.03;;;0.70;;
31848;SDS011;18414;59.352;18.152;2023-02-18T11:17:31;6.63;;;1.00;;
31848;SDS011;18414;59.352;18.152;2023-02-18T11:19:59;3.73;;;0.80;;
31848;SDS011;18414;59.352;18.152;2023-02-18T11:22:30;1.43;;;0.60;;
31848;SDS011;18414;59.352;18.152;2023-02-18T11:24:58;0.93;;;0.70;;
31848;SDS011;18414;59.352;18.152;2023-02-18T11:30:29;1.37;;;0.80;;
31848;SDS011;18414;59.352;18.152;2023-02-18T11:33:09;1.60;;;0.60;;
31848;SDS011;18414;59.352;18.152;2023-02-18T11:35:40;1.10;;;0.60;;
31848;SDS011;18414;59.352;18.152;2023-02-18T11:38:17;0.97;;;0.70;;
31848;SDS011;18414;59.352;18.152;2023-02-18T11:40:52;1.17;;;0.50;;
31848;SDS011;18414;59.352;18.152;2023-02-18T11:43:24;1.37;;;0.50;;
31848;SDS011;18414;59.352;18.152;2023-02-18T11:48:37;3.60;;;0.70;;
31848;SDS011;18414;59.352;18.152;2023-02-18T11:51:03;1.20;;;0.63;;
31848;SDS011;18414;59.352;18.152;2023-02-18T11:56:05;1.07;;;0.53;;
31848;SDS011;18414;59.352;18.152;2023-02-18T11:58:40;1.07;;;0.47;;
31848;SDS011;18414;59.352;18.152;2023-02-18T12:01:13;1.13;;;0.63;;
31848;SDS011;18414;59.352;18.152;2023-02-18T12:06:19;0.77;;;0.50;;
31848;SDS011;18414;59.352;18.152;2023-02-18T12:08:53;2.50;;;0.77;;
31848;SDS011;18414;59.352;18.152;2023-02-18T12:11:32;2.80;;;0.70;;
31848;SDS011;18414;59.352;18.152;2023-02-18T12:14:20;1.63;;;0.60;;
31848;SDS011;18414;59.352;18.152;2023-02-18T12:27:42;3.20;;;0.80;;
31848;SDS011;18414;59.352;18.152;2023-02-18T12:33:13;1.50;;;0.53;;
31848;SDS011;18414;59.352;18.152;2023-02-18T12:41:31;1.73;;;0.60;;
31848;SDS011;18414;59.352;18.152;2023-02-18T12:57:25;2.77;;;0.70;;
31848;SDS011;18414;59.352;18.152;2023-02-18T13:08:14;2.00;;;0.90;;
31848;SDS011;18414;59.352;18.152;2023-02-18T13:10:51;1.73;;;0.70;;
31848;SDS011;18414;59.352;18.152;2023-02-18T13:13:30;2.20;;;0.63;;
31848;SDS011;18414;59.352;18.152;2023-02-18T13:18:38;3.27;;;1.00;;
31848;SDS011;18414;59.352;18.152;2023-02-18T13:21:09;3.03;;;0.77;;
31848;SDS011;18414;59.352;18.152;2023-02-18T13:23:38;2.50;;;0.63;;
31848;SDS011;18414;59.352;18.152;2023-02-18T13:26:10;1.73;;;0.70;;
31848;SDS011;18414;59.352;18.152;2023-02-18T13:31:42;1.43;;;0.70;;
31848;SDS011;18414;59.352;18.152;2023-02-18T13:34:37;2.20;;;0.50;;
31848;SDS011;18414;59.352;18.152;2023-02-18T13:40:13;1.40;;;0.50;;
31848;SDS011;18414;59.352;18.152;2023-02-18T13:42:44;1.53;;;0.57;;
31848;SDS011;18414;59.352;18.152;2023-02-18T13:45:22;1.63;;;0.70;;
31848;SDS011;18414;59.352;18.152;2023-02-18T13:47:55;3.23;;;0.70;;
31848;SDS011;18414;59.352;18.152;2023-02-18T13:52:49;0.97;;;0.60;;
31848;SDS011;18414;59.352;18.152;2023-02-18T13:55:20;0.50;;;0.50;;
31848;SDS011;18414;59.352;18.152;2023-02-18T13:57:47;1.43;;;0.50;;
31848;SDS011;18414;59.352;18.152;2023-02-18T14:00:24;2.27;;;0.70;;
31848;SDS011;18414;59.352;18.152;2023-02-18T14:03:00;2.37;;;0.67;;
31848;SDS011;18414;59.352;18.152;2023-02-18T14:05:37;1.33;;;0.60;;
31848;SDS011;18414;59.352;18.152;2023-02-18T14:08:14;1.37;;;0.50;;
31848;SDS011;18414;59.352;18.152;2023-02-18T14:10:41;0.73;;;0.50;;
31848;SDS011;18414;59.352;18.152;2023-02-18T14:13:20;1.20;;;0.50;;
31848;SDS011;18414;59.352;18.152;2023-02-18T14:15:52;0.50;;;0.50;;
31848;SDS011;18414;59.352;18.152;2023-02-18T14:18:24;1.67;;;0.60;;
31848;SDS011;18414;59.352;18.152;2023-02-18T14:21:04;0.57;;;0.40;;
31848;SDS011;18414;59.352;18.152;2023-02-18T14:31:43;0.63;;;0.40;;
31848;SDS011;18414;59.352;18.152;2023-02-18T14:36:45;1.20;;;0.50;;
31848;SDS011;18414;59.352;18.152;2023-02-18T14:45:16;0.50;;;0.50;;
31848;SDS011;18414;59.352;18.152;2023-02-18T14:48:10;0.80;;;0.43;;
31848;SDS011;18414;59.352;18.152;2023-02-18T14:50:41;1.23;;;0.53;;
31848;SDS011;18414;59.352;18.152;2023-02-18T14:53:10;1.27;;;0.50;;
31848;SDS011;18414;59.352;18.152;2023-02-18T14:55:43;0.50;;;0.50;;
31848;SDS011;18414;59.352;18.152;2023-02-18T14:58:23;2.57;;;0.60;;
31848;SDS011;18414;59.352;18.152;2023-02-18T15:00:52;1.77;;;0.70;;
31848;SDS011;18414;59.352;18.152;2023-02-18T15:03:18;1.53;;;0.50;;
31848;SDS011;18414;59.352;18.152;2023-02-18T15:05:46;1.47;;;0.70;;
31848;SDS011;18414;59.352;18.152;2023-02-18T15:08:16;2.53;;;0.60;;
31848;SDS011;18414;59.352;18.152;2023-02-18T15:13:19;1.73;;;0.50;;
31848;SDS011;18414;59.352;18.152;2023-02-18T15:15:49;2.13;;;0.60;;
31848;SDS011;18414;59.352;18.152;2023-02-18T15:18:21;3.47;;;0.70;;
31848;SDS011;18414;59.352;18.152;2023-02-18T15:20:50;1.10;;;0.60;;
31848;SDS011;18414;59.352;18.152;2023-02-18T15:23:16;6.03;;;0.83;;
31848;SDS011;18414;59.352;18.152;2023-02-18T15:25:44;1.73;;;0.67;;
31848;SDS011;18414;59.352;18.152;2023-02-18T15:28:20;0.80;;;0.60;;
31848;SDS011;18414;59.352;18.152;2023-02-18T15:30:47;0.83;;;0.70;;
31848;SDS011;18414;59.352;18.152;2023-02-18T15:33:12;0.73;;;0.67;;
31848;SDS011;18414;59.352;18.152;2023-02-18T15:35:39;1.03;;;0.60;;
31848;SDS011;18414;59.352;18.152;2023-02-18T15:38:12;1.37;;;0.70;;
31848;SDS011;18414;59.352;18.152;2023-02-18T15:40:38;1.10;;;0.70;;
31848;SDS011;18414;59.352;18.152;2023-02-18T15:43:05;2.00;;;0.90;;
31848;SDS011;18414;59.352;18.152;2023-02-18T15:45:50;2.87;;;0.63;;
31848;SDS011;18414;59.352;18.152;2023-02-18T15:50:55;2.90;;;0.70;;
31848;SDS011;18414;59.352;18.152;2023-02-18T15:53:21;1.17;;;0.70;;
31848;SDS011;18414;59.352;18.152;2023-02-18T15:55:48;1.47;;;0.80;;
31848;SDS011;18414;59.352;18.152;2023-02-18T15:58:28;1.00;;;0.60;;
31848;SDS011;18414;59.352;18.152;2023-02-18T16:01:05;1.30;;;0.63;;
31848;SDS011;18414;59.352;18.152;2023-02-18T16:03:37;3.77;;;0.80;;
31848;SDS011;18414;59.352;18.152;2023-02-18T16:06:16;1.30;;;0.70;;
31848;SDS011;18414;59.352;18.152;2023-02-18T16:11:36;2.07;;;0.67;;
31848;SDS011;18414;59.352;18.152;2023-02-18T16:14:04;3.07;;;0.90;;
31848;SDS011;18414;59.352;18.152;2023-02-18T16:16:34;0.90;;;0.60;;
31848;SDS011;18414;59.352;18.152;2023-02-18T16:19:00;2.20;;;0.80;;
31848;SDS011;18414;59.352;18.152;2023-02-18T16:21:36;1.27;;;0.80;;
31848;SDS011;18414;59.352;18.152;2023-02-18T16:24:25;2.37;;;0.90;;
31848;SDS011;18414;59.352;18.152;2023-02-18T16:26:53;3.17;;;1.00;;
31848;SDS011;18414;59.352;18.152;2023-02-18T16:29:25;4.47;;;0.80;;
31848;SDS011;18414;59.352;18.152;2023-02-18T16:31:56;2.33;;;0.80;;
31848;SDS011;18414;59.352;18.152;2023-02-18T16:34:21;2.03;;;0.90;;
31848;SDS011;18414;59.352;18.152;2023-02-18T16:36:46;3.57;;;1.00;;
31848;SDS011;18414;59.352;18.152;2023-02-18T16:39:31;1.90;;;0.70;;
31848;SDS011;18414;59.352;18.152;2023-02-18T16:41:57;3.13;;;0.87;;
31848;SDS011;18414;59.352;18.152;2023-02-18T16:44:23;1.67;;;0.80;;
31848;SDS011;18414;59.352;18.152;2023-02-18T16:46:49;3.37;;;0.90;;
31848;SDS011;18414;59.352;18.152;2023-02-18T16:49:14;1.50;;;0.83;;
31848;SDS011;18414;59.352;18.152;2023-02-18T16:51:40;2.17;;;1.00;;
31848;SDS011;18414;59.352;18.152;2023-02-18T16:54:09;3.07;;;0.77;;
31848;SDS011;18414;59.352;18.152;2023-02-18T16:56:35;5.20;;;1.00;;
31848;SDS011;18414;59.352;18.152;2023-02-18T16:59:00;0.90;;;0.70;;
31848;SDS011;18414;59.352;18.152;2023-02-18T17:01:26;1.63;;;0.90;;